sensor_id;sensor_type;location;lat;lon;timestamp;temperature;humidity
46217;DHT22;47258;59.424;13.482;2024-03-17T00:02:23;-0.50;99.90
46217;DHT22;47258;59.424;13.482;2024-03-17T00:04:48;-0.60;99.90
46217;DHT22;47258;59.424;13.482;2024-03-17T00:07:14;-0.60;99.90
46217;DHT22;47258;59.424;13.482;2024-03-17T00:09:41;-0.60;99.90
46217;DHT22;47258;59.424;13.482;2024-03-17T00:12:07;-0.60;99.90
46217;DHT22;47258;59.424;13.482;2024-03-17T00:14:34;-0.70;99.90
46217;DHT22;47258;59.424;13.482;2024-03-17T00:17:02;-0.70;99.90
46217;DHT22;47258;59.424;13.482;2024-03-17T00:19:28;-0.80;99.90
46217;DHT22;47258;59.424;13.482;2024-03-17T00:21:54;-0.80;99.90
46217;DHT22;47258;59.424;13.482;2024-03-17T00:24:20;-0.80;99.90
46217;DHT22;47258;59.424;13.482;2024-03-17T00:26:49;-0.80;99.90
46217;DHT22;47258;59.424;13.482;2024-03-17T00:29:14;-0.90;99.90
46217;DHT22;47258;59.424;13.482;2024-03-17T00:31:41;-0.90;99.90
46217;DHT22;47258;59.424;13.482;2024-03-17T00:34:07;-0.90;99.90
46217;DHT22;47258;59.424;13.482;2024-03-17T00:36:33;-0.90;99.90
46217;DHT22;47258;59.424;13.482;2024-03-17T00:38:58;-1.00;99.90
46217;DHT22;47258;59.424;13.482;2024-03-17T00:41:25;-1.00;99.90
46217;DHT22;47258;59.424;13.482;2024-03-17T00:43:51;-1.00;99.90
46217;DHT22;47258;59.424;13.482;2024-03-17T00:46:20;-1.00;99.90
46217;DHT22;47258;59.424;13.482;2024-03-17T00:48:49;-1.10;99.90
46217;DHT22;47258;59.424;13.482;2024-03-17T00:51:16;-1.10;99.90
46217;DHT22;47258;59.424;13.482;2024-03-17T00:53:42;-1.10;99.90
46217;DHT22;47258;59.424;13.482;2024-03-17T00:56:08;-1.10;99.90
46217;DHT22;47258;59.424;13.482;2024-03-17T00:58:34;-1.20;99.90
46217;DHT22;47258;59.424;13.482;2024-03-17T01:00:59;-1.20;99.90
46217;DHT22;47258;59.424;13.482;2024-03-17T01:03:25;-1.20;99.90
46217;DHT22;47258;59.424;13.482;2024-03-17T01:05:53;-1.30;99.90
46217;DHT22;47258;59.424;13.482;2024-03-17T01:08:21;-1.30;99.90
46217;DHT22;47258;59.424;13.482;2024-03-17T01:10:48;-1.30;99.90
46217;DHT22;47258;59.424;13.482;2024-03-17T01:13:17;-1.30;99.90
46217;DHT22;47258;59.424;13.482;2024-03-17T01:15:43;-1.40;99.90
46217;DHT22;47258;59.424;13.482;2024-03-17T01:18:09;-1.40;99.90
46217;DHT22;47258;59.424;13.482;2024-03-17T01:20:36;-1.40;99.90
46217;DHT22;47258;59.424;13.482;2024-03-17T01:23:03;-1.50;99.90
46217;DHT22;47258;59.424;13.482;2024-03-17T01:25:29;-1.50;99.90
46217;DHT22;47258;59.424;13.482;2024-03-17T01:27:58;-1.50;99.90
46217;DHT22;47258;59.424;13.482;2024-03-17T01:30:24;-1.50;99.90
46217;DHT22;47258;59.424;13.482;2024-03-17T01:32:51;-1.60;99.90
46217;DHT22;47258;59.424;13.482;2024-03-17T01:35:17;-1.60;99.90
46217;DHT22;47258;59.424;13.482;2024-03-17T01:37:42;-1.60;99.90
46217;DHT22;47258;59.424;13.482;2024-03-17T01:40:08;-1.60;99.90
46217;DHT22;47258;59.424;13.482;2024-03-17T01:42:36;-1.60;99.90
46217;DHT22;47258;59.424;13.482;2024-03-17T01:47:57;-1.60;99.90
46217;DHT22;47258;59.424;13.482;2024-03-17T01:50:28;-1.60;99.90
46217;DHT22;47258;59.424;13.482;2024-03-17T01:52:58;-1.60;99.90
46217;DHT22;47258;59.424;13.482;2024-03-17T01:55:26;-1.70;99.90
46217;DHT22;47258;59.424;13.482;2024-03-17T01:57:53;-1.70;99.90
46217;DHT22;47258;59.424;13.482;2024-03-17T02:00:19;-1.80;99.90
46217;DHT22;47258;59.424;13.482;2024-03-17T02:02:45;-1.80;99.90
46217;DHT22;47258;59.424;13.482;2024-03-17T02:05:10;-1.80;99.90
46217;DHT22;47258;59.424;13.482;2024-03-17T02:07:36;-1.70;99.90
46217;DHT22;47258;59.424;13.482;2024-03-17T02:10:03;-1.70;99.90
46217;DHT22;47258;59.424;13.482;2024-03-17T02:12:30;-1.70;99.90
46217;DHT22;47258;59.424;13.482;2024-03-17T02:14:58;-1.70;99.90
46217;DHT22;47258;59.424;13.482;2024-03-17T02:17:23;-1.70;99.90
46217;DHT22;47258;59.424;13.482;2024-03-17T02:19:51;-1.70;99.90
46217;DHT22;47258;59.424;13.482;2024-03-17T02:22:17;-1.70;99.90
46217;DHT22;47258;59.424;13.482;2024-03-17T02:24:43;-1.70;99.90
46217;DHT22;47258;59.424;13.482;2024-03-17T02:27:09;-1.70;99.90
46217;DHT22;47258;59.424;13.482;2024-03-17T02:29:35;-1.60;99.90
46217;DHT22;47258;59.424;13.482;2024-03-17T02:32:11;-1.60;99.90
46217;DHT22;47258;59.424;13.482;2024-03-17T02:34:38;-1.60;99.90
46217;DHT22;47258;59.424;13.482;2024-03-17T02:37:06;-1.60;99.90
46217;DHT22;47258;59.424;13.482;2024-03-17T02:39:35;-1.70;99.90
46217;DHT22;47258;59.424;13.482;2024-03-17T02:42:02;-1.60;99.90
46217;DHT22;47258;59.424;13.482;2024-03-17T02:44:30;-1.70;99.90
46217;DHT22;47258;59.424;13.482;2024-03-17T02:46:57;-1.70;99.90
46217;DHT22;47258;59.424;13.482;2024-03-17T02:49:23;-1.70;99.90
46217;DHT22;47258;59.424;13.482;2024-03-17T02:51:49;-1.70;99.90
46217;DHT22;47258;59.424;13.482;2024-03-17T02:54:15;-1.70;99.90
46217;DHT22;47258;59.424;13.482;2024-03-17T02:56:41;-1.70;99.90
46217;DHT22;47258;59.424;13.482;2024-03-17T02:59:07;-1.70;99.90
46217;DHT22;47258;59.424;13.482;2024-03-17T03:01:33;-1.70;99.90
46217;DHT22;47258;59.424;13.482;2024-03-17T03:03:59;-1.80;99.90
46217;DHT22;47258;59.424;13.482;2024-03-17T03:06:24;-1.80;99.90
46217;DHT22;47258;59.424;13.482;2024-03-17T03:08:50;-1.90;99.90
46217;DHT22;47258;59.424;13.482;2024-03-17T03:11:17;-1.90;99.90
46217;DHT22;47258;59.424;13.482;2024-03-17T03:13:43;-1.90;99.90
46217;DHT22;47258;59.424;13.482;2024-03-17T03:16:13;-2.00;99.90
46217;DHT22;47258;59.424;13.482;2024-03-17T03:18:44;-2.00;99.90
46217;DHT22;47258;59.424;13.482;2024-03-17T03:21:10;-2.00;99.90
46217;DHT22;47258;59.424;13.482;2024-03-17T03:23:39;-2.10;99.90
46217;DHT22;47258;59.424;13.482;2024-03-17T03:26:05;-2.10;99.90
46217;DHT22;47258;59.424;13.482;2024-03-17T03:28:34;-2.20;99.90
46217;DHT22;47258;59.424;13.482;2024-03-17T03:31:00;-2.30;99.90
46217;DHT22;47258;59.424;13.482;2024-03-17T03:33:27;-2.30;99.90
46217;DHT22;47258;59.424;13.482;2024-03-17T03:35:53;-2.30;99.90
46217;DHT22;47258;59.424;13.482;2024-03-17T03:38:21;-2.40;99.90
46217;DHT22;47258;59.424;13.482;2024-03-17T03:40:47;-2.40;99.90
46217;DHT22;47258;59.424;13.482;2024-03-17T03:43:13;-2.50;99.90
46217;DHT22;47258;59.424;13.482;2024-03-17T03:45:40;-2.50;99.90
46217;DHT22;47258;59.424;13.482;2024-03-17T03:48:07;-2.50;99.90
46217;DHT22;47258;59.424;13.482;2024-03-17T03:50:34;-2.60;99.90
46217;DHT22;47258;59.424;13.482;2024-03-17T03:53:00;-2.60;99.90
46217;DHT22;47258;59.424;13.482;2024-03-17T03:55:26;-2.60;99.90
46217;DHT22;47258;59.424;13.482;2024-03-17T03:57:52;-2.70;99.90
46217;DHT22;47258;59.424;13.482;2024-03-17T04:00:21;-2.70;99.90
46217;DHT22;47258;59.424;13.482;2024-03-17T04:02:51;-2.70;99.90
46217;DHT22;47258;59.424;13.482;2024-03-17T04:05:18;-2.70;99.90
46217;DHT22;47258;59.424;13.482;2024-03-17T04:07:46;-2.80;99.90
46217;DHT22;47258;59.424;13.482;2024-03-17T04:10:13;-2.80;99.90
46217;DHT22;47258;59.424;13.482;2024-03-17T04:12:39;-2.80;99.90
46217;DHT22;47258;59.424;13.482;2024-03-17T04:15:05;-2.80;99.90
46217;DHT22;47258;59.424;13.482;2024-03-17T04:17:32;-2.90;99.90
46217;DHT22;47258;59.424;13.482;2024-03-17T04:19:58;-2.90;99.90
46217;DHT22;47258;59.424;13.482;2024-03-17T04:22:24;-2.90;99.90
46217;DHT22;47258;59.424;13.482;2024-03-17T04:24:51;-3.00;99.90
46217;DHT22;47258;59.424;13.482;2024-03-17T04:27:20;-3.00;99.90
46217;DHT22;47258;59.424;13.482;2024-03-17T04:29:58;-3.00;99.90
46217;DHT22;47258;59.424;13.482;2024-03-17T04:32:24;-3.00;99.90
46217;DHT22;47258;59.424;13.482;2024-03-17T04:34:52;-3.10;99.90
46217;DHT22;47258;59.424;13.482;2024-03-17T04:37:18;-3.10;99.90
46217;DHT22;47258;59.424;13.482;2024-03-17T04:39:45;-3.20;99.90
46217;DHT22;47258;59.424;13.482;2024-03-17T04:42:15;-3.10;99.90
46217;DHT22;47258;59.424;13.482;2024-03-17T04:44:45;-3.10;99.90
46217;DHT22;47258;59.424;13.482;2024-03-17T04:47:11;-3.20;99.90
46217;DHT22;47258;59.424;13.482;2024-03-17T04:52:04;-3.30;99.90
46217;DHT22;47258;59.424;13.482;2024-03-17T04:54:34;-3.30;99.90
46217;DHT22;47258;59.424;13.482;2024-03-17T04:57:00;-3.30;99.90
46217;DHT22;47258;59.424;13.482;2024-03-17T04:59:26;-3.40;99.90
46217;DHT22;47258;59.424;13.482;2024-03-17T05:01:53;-3.40;99.90
46217;DHT22;47258;59.424;13.482;2024-03-17T05:04:18;-3.30;99.90
46217;DHT22;47258;59.424;13.482;2024-03-17T05:06:44;-3.30;99.90
46217;DHT22;47258;59.424;13.482;2024-03-17T05:09:14;-3.40;99.90
46217;DHT22;47258;59.424;13.482;2024-03-17T05:11:42;-3.30;99.90
46217;DHT22;47258;59.424;13.482;2024-03-17T05:14:09;-3.30;99.90
46217;DHT22;47258;59.424;13.482;2024-03-17T05:16:35;-3.40;99.90
46217;DHT22;47258;59.424;13.482;2024-03-17T05:19:00;-3.40;99.90
46217;DHT22;47258;59.424;13.482;2024-03-17T05:21:26;-3.40;99.90
46217;DHT22;47258;59.424;13.482;2024-03-17T05:23:56;-3.40;99.90
46217;DHT22;47258;59.424;13.482;2024-03-17T05:26:22;-3.40;99.90
46217;DHT22;47258;59.424;13.482;2024-03-17T05:28:47;-3.40;99.90
46217;DHT22;47258;59.424;13.482;2024-03-17T05:31:13;-3.50;99.90
46217;DHT22;47258;59.424;13.482;2024-03-17T05:33:40;-3.50;99.90
46217;DHT22;47258;59.424;13.482;2024-03-17T05:36:06;-3.50;99.90
46217;DHT22;47258;59.424;13.482;2024-03-17T05:38:32;-3.50;99.90
46217;DHT22;47258;59.424;13.482;2024-03-17T05:41:00;-3.50;99.90
46217;DHT22;47258;59.424;13.482;2024-03-17T05:43:26;-3.50;99.90
46217;DHT22;47258;59.424;13.482;2024-03-17T05:45:54;-3.50;99.90
46217;DHT22;47258;59.424;13.482;2024-03-17T05:48:20;-3.50;99.90
46217;DHT22;47258;59.424;13.482;2024-03-17T05:50:46;-3.50;99.90
46217;DHT22;47258;59.424;13.482;2024-03-17T05:53:12;-3.50;99.90
46217;DHT22;47258;59.424;13.482;2024-03-17T05:55:38;-3.50;99.90
46217;DHT22;47258;59.424;13.482;2024-03-17T05:58:04;-3.50;99.90
46217;DHT22;47258;59.424;13.482;2024-03-17T06:00:30;-3.40;99.90
46217;DHT22;47258;59.424;13.482;2024-03-17T06:02:57;-3.40;99.90
46217;DHT22;47258;59.424;13.482;2024-03-17T06:05:22;-3.40;99.90
46217;DHT22;47258;59.424;13.482;2024-03-17T06:07:48;-3.40;99.90
46217;DHT22;47258;59.424;13.482;2024-03-17T06:10:14;-3.30;99.90
46217;DHT22;47258;59.424;13.482;2024-03-17T06:12:40;-3.30;99.90
46217;DHT22;47258;59.424;13.482;2024-03-17T06:15:06;-3.30;99.90
46217;DHT22;47258;59.424;13.482;2024-03-17T06:17:32;-3.30;99.90
46217;DHT22;47258;59.424;13.482;2024-03-17T06:19:58;-3.30;99.90
46217;DHT22;47258;59.424;13.482;2024-03-17T06:22:23;-3.30;99.90
46217;DHT22;47258;59.424;13.482;2024-03-17T06:24:50;-3.20;99.90
46217;DHT22;47258;59.424;13.482;2024-03-17T06:27:16;-3.20;99.90
46217;DHT22;47258;59.424;13.482;2024-03-17T06:29:41;-3.20;99.90
46217;DHT22;47258;59.424;13.482;2024-03-17T06:32:11;-3.20;99.90
46217;DHT22;47258;59.424;13.482;2024-03-17T06:34:37;-3.20;99.90
46217;DHT22;47258;59.424;13.482;2024-03-17T06:37:02;-3.20;99.90
46217;DHT22;47258;59.424;13.482;2024-03-17T06:39:28;-3.10;99.90
46217;DHT22;47258;59.424;13.482;2024-03-17T06:41:54;-3.10;99.90
46217;DHT22;47258;59.424;13.482;2024-03-17T06:44:19;-3.10;99.90
46217;DHT22;47258;59.424;13.482;2024-03-17T06:46:49;-3.00;99.90
46217;DHT22;47258;59.424;13.482;2024-03-17T06:49:15;-3.00;99.90
46217;DHT22;47258;59.424;13.482;2024-03-17T06:51:41;-2.90;99.90
46217;DHT22;47258;59.424;13.482;2024-03-17T06:54:09;-2.80;99.90
46217;DHT22;47258;59.424;13.482;2024-03-17T06:56:34;-2.80;99.90
46217;DHT22;47258;59.424;13.482;2024-03-17T06:59:01;-2.70;99.90
46217;DHT22;47258;59.424;13.482;2024-03-17T07:01:26;-2.70;99.90
46217;DHT22;47258;59.424;13.482;2024-03-17T07:03:53;-2.60;99.90
46217;DHT22;47258;59.424;13.482;2024-03-17T07:06:18;-2.50;99.90
46217;DHT22;47258;59.424;13.482;2024-03-17T07:08:44;-2.50;99.90
46217;DHT22;47258;59.424;13.482;2024-03-17T07:11:10;-2.40;99.90
46217;DHT22;47258;59.424;13.482;2024-03-17T07:13:37;-2.30;99.90
46217;DHT22;47258;59.424;13.482;2024-03-17T07:16:04;-2.30;99.90
46217;DHT22;47258;59.424;13.482;2024-03-17T07:18:32;-2.30;99.90
46217;DHT22;47258;59.424;13.482;2024-03-17T07:20:59;-2.30;99.90
46217;DHT22;47258;59.424;13.482;2024-03-17T07:23:25;-2.20;99.90
46217;DHT22;47258;59.424;13.482;2024-03-17T07:25:55;-2.10;99.90
46217;DHT22;47258;59.424;13.482;2024-03-17T07:28:21;-2.00;99.90
46217;DHT22;47258;59.424;13.482;2024-03-17T07:30:52;-2.00;99.90
46217;DHT22;47258;59.424;13.482;2024-03-17T07:33:18;-2.00;99.90
46217;DHT22;47258;59.424;13.482;2024-03-17T07:35:53;-1.90;99.90
46217;DHT22;47258;59.424;13.482;2024-03-17T07:38:25;-1.90;99.90
46217;DHT22;47258;59.424;13.482;2024-03-17T07:41:05;-1.90;99.90
46217;DHT22;47258;59.424;13.482;2024-03-17T07:43:32;-1.90;99.90
46217;DHT22;47258;59.424;13.482;2024-03-17T07:46:05;-1.90;99.90
46217;DHT22;47258;59.424;13.482;2024-03-17T07:48:33;-1.90;99.90
46217;DHT22;47258;59.424;13.482;2024-03-17T07:51:01;-1.80;99.90
46217;DHT22;47258;59.424;13.482;2024-03-17T07:53:30;-1.70;99.90
46217;DHT22;47258;59.424;13.482;2024-03-17T07:56:05;-1.70;99.90
46217;DHT22;47258;59.424;13.482;2024-03-17T07:58:32;-1.70;99.90
46217;DHT22;47258;59.424;13.482;2024-03-17T08:01:02;-1.60;99.90
46217;DHT22;47258;59.424;13.482;2024-03-17T08:03:35;-1.60;99.90
46217;DHT22;47258;59.424;13.482;2024-03-17T08:06:03;-1.50;99.90
46217;DHT22;47258;59.424;13.482;2024-03-17T08:08:29;-1.50;99.90
46217;DHT22;47258;59.424;13.482;2024-03-17T08:10:55;-1.40;99.90
46217;DHT22;47258;59.424;13.482;2024-03-17T08:13:21;-1.30;99.90
46217;DHT22;47258;59.424;13.482;2024-03-17T08:15:56;-1.20;99.90
46217;DHT22;47258;59.424;13.482;2024-03-17T08:18:22;-1.20;99.90
46217;DHT22;47258;59.424;13.482;2024-03-17T08:20:47;-1.10;99.90
46217;DHT22;47258;59.424;13.482;2024-03-17T08:23:13;-1.10;99.90
46217;DHT22;47258;59.424;13.482;2024-03-17T08:25:39;-1.10;99.90
46217;DHT22;47258;59.424;13.482;2024-03-17T08:28:05;-1.00;99.90
46217;DHT22;47258;59.424;13.482;2024-03-17T08:30:33;-1.00;99.90
46217;DHT22;47258;59.424;13.482;2024-03-17T08:32:59;-0.90;99.90
46217;DHT22;47258;59.424;13.482;2024-03-17T08:35:25;-0.80;99.90
46217;DHT22;47258;59.424;13.482;2024-03-17T08:37:51;-0.70;99.90
46217;DHT22;47258;59.424;13.482;2024-03-17T08:40:20;-0.70;99.90
46217;DHT22;47258;59.424;13.482;2024-03-17T08:42:46;-0.70;99.90
46217;DHT22;47258;59.424;13.482;2024-03-17T08:45:11;-0.60;99.90
46217;DHT22;47258;59.424;13.482;2024-03-17T08:47:38;-0.50;99.90
46217;DHT22;47258;59.424;13.482;2024-03-17T08:50:04;-0.40;99.90
46217;DHT22;47258;59.424;13.482;2024-03-17T08:52:36;-0.30;99.90
46217;DHT22;47258;59.424;13.482;2024-03-17T08:55:01;-0.20;99.90
46217;DHT22;47258;59.424;13.482;2024-03-17T08:57:35;-0.20;99.90
46217;DHT22;47258;59.424;13.482;2024-03-17T09:00:01;-0.20;99.90
46217;DHT22;47258;59.424;13.482;2024-03-17T09:02:27;-0.10;99.90
46217;DHT22;47258;59.424;13.482;2024-03-17T09:04:52;0.00;99.90
46217;DHT22;47258;59.424;13.482;2024-03-17T09:07:18;0.00;99.90
46217;DHT22;47258;59.424;13.482;2024-03-17T09:09:46;0.00;99.90
46217;DHT22;47258;59.424;13.482;2024-03-17T09:12:13;0.10;99.90
46217;DHT22;47258;59.424;13.482;2024-03-17T09:14:39;0.20;99.90
46217;DHT22;47258;59.424;13.482;2024-03-17T09:17:06;0.20;99.90
46217;DHT22;47258;59.424;13.482;2024-03-17T09:19:32;0.20;99.90
46217;DHT22;47258;59.424;13.482;2024-03-17T09:21:58;0.20;99.90
46217;DHT22;47258;59.424;13.482;2024-03-17T09:24:24;0.20;99.90
46217;DHT22;47258;59.424;13.482;2024-03-17T09:26:51;0.20;99.90
46217;DHT22;47258;59.424;13.482;2024-03-17T09:29:17;0.30;99.90
46217;DHT22;47258;59.424;13.482;2024-03-17T09:31:43;0.50;99.90
46217;DHT22;47258;59.424;13.482;2024-03-17T09:34:09;0.60;99.90
46217;DHT22;47258;59.424;13.482;2024-03-17T09:36:34;0.60;99.90
46217;DHT22;47258;59.424;13.482;2024-03-17T09:39:01;0.70;99.90
46217;DHT22;47258;59.424;13.482;2024-03-17T09:41:29;0.60;99.90
46217;DHT22;47258;59.424;13.482;2024-03-17T09:43:57;0.50;99.90
46217;DHT22;47258;59.424;13.482;2024-03-17T09:46:27;0.50;99.90
46217;DHT22;47258;59.424;13.482;2024-03-17T09:48:54;0.70;99.90
46217;DHT22;47258;59.424;13.482;2024-03-17T09:51:25;0.80;99.90
46217;DHT22;47258;59.424;13.482;2024-03-17T09:53:51;0.80;99.90
46217;DHT22;47258;59.424;13.482;2024-03-17T09:56:21;0.90;99.90
46217;DHT22;47258;59.424;13.482;2024-03-17T09:58:48;1.00;99.90
46217;DHT22;47258;59.424;13.482;2024-03-17T10:01:14;1.00;99.90
46217;DHT22;47258;59.424;13.482;2024-03-17T10:03:44;1.00;99.90
46217;DHT22;47258;59.424;13.482;2024-03-17T10:06:12;1.00;99.90
46217;DHT22;47258;59.424;13.482;2024-03-17T10:08:48;1.10;99.90
46217;DHT22;47258;59.424;13.482;2024-03-17T10:11:16;1.20;99.90
46217;DHT22;47258;59.424;13.482;2024-03-17T10:13:47;1.20;99.90
46217;DHT22;47258;59.424;13.482;2024-03-17T10:16:25;1.30;99.90
46217;DHT22;47258;59.424;13.482;2024-03-17T10:19:09;1.40;99.90
46217;DHT22;47258;59.424;13.482;2024-03-17T10:21:36;1.70;99.90
46217;DHT22;47258;59.424;13.482;2024-03-17T10:24:13;1.70;99.90
46217;DHT22;47258;59.424;13.482;2024-03-17T10:26:49;1.70;99.90
46217;DHT22;47258;59.424;13.482;2024-03-17T10:29:26;1.60;99.90
46217;DHT22;47258;59.424;13.482;2024-03-17T10:31:56;1.60;99.90
46217;DHT22;47258;59.424;13.482;2024-03-17T10:34:26;1.70;99.90
46217;DHT22;47258;59.424;13.482;2024-03-17T10:37:07;1.80;99.90
46217;DHT22;47258;59.424;13.482;2024-03-17T10:39:37;1.80;99.90
46217;DHT22;47258;59.424;13.482;2024-03-17T10:42:04;1.70;99.90
46217;DHT22;47258;59.424;13.482;2024-03-17T10:44:32;1.80;99.90
46217;DHT22;47258;59.424;13.482;2024-03-17T10:47:00;1.80;99.90
46217;DHT22;47258;59.424;13.482;2024-03-17T10:49:31;1.80;99.90
46217;DHT22;47258;59.424;13.482;2024-03-17T10:52:03;1.80;99.90
46217;DHT22;47258;59.424;13.482;2024-03-17T10:54:30;1.90;99.90
46217;DHT22;47258;59.424;13.482;2024-03-17T10:59:47;1.90;99.90
46217;DHT22;47258;59.424;13.482;2024-03-17T11:02:33;1.70;99.90
46217;DHT22;47258;59.424;13.482;2024-03-17T11:05:07;1.60;99.90
46217;DHT22;47258;59.424;13.482;2024-03-17T11:07:37;1.60;99.90
46217;DHT22;47258;59.424;13.482;2024-03-17T11:10:09;1.60;99.90
46217;DHT22;47258;59.424;13.482;2024-03-17T11:12:40;1.70;99.90
46217;DHT22;47258;59.424;13.482;2024-03-17T11:17:47;1.80;99.90
46217;DHT22;47258;59.424;13.482;2024-03-17T11:20:26;1.80;99.90
46217;DHT22;47258;59.424;13.482;2024-03-17T11:22:55;2.00;99.90
46217;DHT22;47258;59.424;13.482;2024-03-17T11:27:53;2.10;99.90
46217;DHT22;47258;59.424;13.482;2024-03-17T11:38:54;2.50;99.90
46217;DHT22;47258;59.424;13.482;2024-03-17T11:46:58;2.40;99.90
46217;DHT22;47258;59.424;13.482;2024-03-17T11:49:28;2.30;99.90
46217;DHT22;47258;59.424;13.482;2024-03-17T11:52:00;2.40;99.90
46217;DHT22;47258;59.424;13.482;2024-03-17T11:54:27;2.50;99.90
46217;DHT22;47258;59.424;13.482;2024-03-17T11:57:04;2.60;99.90
46217;DHT22;47258;59.424;13.482;2024-03-17T11:59:31;2.70;99.90
46217;DHT22;47258;59.424;13.482;2024-03-17T12:01:58;2.70;99.90
46217;DHT22;47258;59.424;13.482;2024-03-17T12:04:24;2.80;99.90
46217;DHT22;47258;59.424;13.482;2024-03-17T12:06:59;2.80;99.90
46217;DHT22;47258;59.424;13.482;2024-03-17T12:09:29;2.80;99.90
46217;DHT22;47258;59.424;13.482;2024-03-17T12:12:00;2.70;99.90
46217;DHT22;47258;59.424;13.482;2024-03-17T12:14:26;2.80;99.90
46217;DHT22;47258;59.424;13.482;2024-03-17T12:16:56;2.90;99.90
46217;DHT22;47258;59.424;13.482;2024-03-17T12:19:23;2.90;99.90
46217;DHT22;47258;59.424;13.482;2024-03-17T12:21:54;3.00;99.90
46217;DHT22;47258;59.424;13.482;2024-03-17T12:24:22;2.90;99.90
46217;DHT22;47258;59.424;13.482;2024-03-17T12:26:49;2.80;99.90
46217;DHT22;47258;59.424;13.482;2024-03-17T12:29:41;2.80;99.90
46217;DHT22;47258;59.424;13.482;2024-03-17T12:34:35;2.80;99.90
46217;DHT22;47258;59.424;13.482;2024-03-17T12:37:02;2.90;99.90
46217;DHT22;47258;59.424;13.482;2024-03-17T12:39:28;2.90;99.90
46217;DHT22;47258;59.424;13.482;2024-03-17T12:42:13;2.80;99.90
46217;DHT22;47258;59.424;13.482;2024-03-17T12:44:58;2.80;99.90
46217;DHT22;47258;59.424;13.482;2024-03-17T12:47:25;2.90;99.90
46217;DHT22;47258;59.424;13.482;2024-03-17T12:49:58;3.00;99.90
46217;DHT22;47258;59.424;13.482;2024-03-17T12:55:09;3.00;99.90
46217;DHT22;47258;59.424;13.482;2024-03-17T13:00:56;3.10;99.90
46217;DHT22;47258;59.424;13.482;2024-03-17T13:03:27;3.10;99.90
46217;DHT22;47258;59.424;13.482;2024-03-17T13:05:53;3.20;99.90
46217;DHT22;47258;59.424;13.482;2024-03-17T13:08:18;3.30;99.90
46217;DHT22;47258;59.424;13.482;2024-03-17T13:10:44;3.10;99.90
46217;DHT22;47258;59.424;13.482;2024-03-17T13:13:12;3.10;99.90
46217;DHT22;47258;59.424;13.482;2024-03-17T13:15:41;3.00;99.90
46217;DHT22;47258;59.424;13.482;2024-03-17T13:18:07;3.10;99.90
46217;DHT22;47258;59.424;13.482;2024-03-17T13:20:34;3.20;99.90
46217;DHT22;47258;59.424;13.482;2024-03-17T13:23:00;3.30;99.90
46217;DHT22;47258;59.424;13.482;2024-03-17T13:25:28;3.40;99.90
46217;DHT22;47258;59.424;13.482;2024-03-17T13:28:04;3.50;99.90
46217;DHT22;47258;59.424;13.482;2024-03-17T13:30:30;3.50;99.90
46217;DHT22;47258;59.424;13.482;2024-03-17T13:32:56;3.60;99.90
46217;DHT22;47258;59.424;13.482;2024-03-17T13:35:27;3.60;99.90
46217;DHT22;47258;59.424;13.482;2024-03-17T13:37:55;3.70;99.90
46217;DHT22;47258;59.424;13.482;2024-03-17T13:40:22;3.80;99.90
46217;DHT22;47258;59.424;13.482;2024-03-17T13:42:52;3.70;99.90
46217;DHT22;47258;59.424;13.482;2024-03-17T13:45:19;3.70;99.90
46217;DHT22;47258;59.424;13.482;2024-03-17T13:50:17;3.60;99.90
46217;DHT22;47258;59.424;13.482;2024-03-17T13:52:43;3.80;99.90
46217;DHT22;47258;59.424;13.482;2024-03-17T13:55:14;3.90;99.90
46217;DHT22;47258;59.424;13.482;2024-03-17T13:57:43;4.00;99.90
46217;DHT22;47258;59.424;13.482;2024-03-17T14:00:10;3.90;99.90
46217;DHT22;47258;59.424;13.482;2024-03-17T14:02:44;3.80;99.90
46217;DHT22;47258;59.424;13.482;2024-03-17T14:05:14;3.80;99.90
46217;DHT22;47258;59.424;13.482;2024-03-17T14:07:41;3.50;99.90
46217;DHT22;47258;59.424;13.482;2024-03-17T14:10:07;3.30;99.90
46217;DHT22;47258;59.424;13.482;2024-03-17T14:12:34;3.20;99.90
46217;DHT22;47258;59.424;13.482;2024-03-17T14:15:00;3.20;99.90
46217;DHT22;47258;59.424;13.482;2024-03-17T14:17:26;3.30;99.90
46217;DHT22;47258;59.424;13.482;2024-03-17T14:19:52;3.30;99.90
46217;DHT22;47258;59.424;13.482;2024-03-17T14:22:18;3.30;99.90
46217;DHT22;47258;59.424;13.482;2024-03-17T14:24:44;3.30;99.90
46217;DHT22;47258;59.424;13.482;2024-03-17T14:27:12;3.20;99.90
46217;DHT22;47258;59.424;13.482;2024-03-17T14:29:38;3.10;99.90
46217;DHT22;47258;59.424;13.482;2024-03-17T14:32:04;3.20;99.90
46217;DHT22;47258;59.424;13.482;2024-03-17T14:34:30;3.10;99.90
46217;DHT22;47258;59.424;13.482;2024-03-17T14:37:00;3.10;99.90
46217;DHT22;47258;59.424;13.482;2024-03-17T14:39:28;3.10;99.90
46217;DHT22;47258;59.424;13.482;2024-03-17T14:41:55;3.20;99.90
46217;DHT22;47258;59.424;13.482;2024-03-17T14:44:20;3.20;99.90
46217;DHT22;47258;59.424;13.482;2024-03-17T14:46:47;3.20;99.90
46217;DHT22;47258;59.424;13.482;2024-03-17T14:49:13;3.10;99.90
46217;DHT22;47258;59.424;13.482;2024-03-17T14:51:38;3.00;99.90
46217;DHT22;47258;59.424;13.482;2024-03-17T14:54:04;3.00;99.90
46217;DHT22;47258;59.424;13.482;2024-03-17T14:56:31;3.00;99.90
46217;DHT22;47258;59.424;13.482;2024-03-17T14:58:57;2.90;99.90
46217;DHT22;47258;59.424;13.482;2024-03-17T15:01:22;2.90;99.90
46217;DHT22;47258;59.424;13.482;2024-03-17T15:03:48;2.90;99.90
46217;DHT22;47258;59.424;13.482;2024-03-17T15:06:14;2.90;99.90
46217;DHT22;47258;59.424;13.482;2024-03-17T15:08:41;2.90;99.90
46217;DHT22;47258;59.424;13.482;2024-03-17T15:11:07;3.00;99.90
46217;DHT22;47258;59.424;13.482;2024-03-17T15:13:36;3.00;99.90
46217;DHT22;47258;59.424;13.482;2024-03-17T15:16:03;3.00;99.90
46217;DHT22;47258;59.424;13.482;2024-03-17T15:18:30;3.00;99.90
46217;DHT22;47258;59.424;13.482;2024-03-17T15:20:56;3.00;99.90
46217;DHT22;47258;59.424;13.482;2024-03-17T15:23:22;3.00;99.90
46217;DHT22;47258;59.424;13.482;2024-03-17T15:25:59;3.00;99.90
46217;DHT22;47258;59.424;13.482;2024-03-17T15:28:25;3.00;99.90
46217;DHT22;47258;59.424;13.482;2024-03-17T15:30:51;2.90;99.90
46217;DHT22;47258;59.424;13.482;2024-03-17T15:33:17;2.80;99.90
46217;DHT22;47258;59.424;13.482;2024-03-17T15:35:43;2.80;99.90
46217;DHT22;47258;59.424;13.482;2024-03-17T15:38:09;2.70;99.90
46217;DHT22;47258;59.424;13.482;2024-03-17T15:40:36;2.70;99.90
46217;DHT22;47258;59.424;13.482;2024-03-17T15:43:02;2.70;99.90
46217;DHT22;47258;59.424;13.482;2024-03-17T15:45:29;2.60;99.90
46217;DHT22;47258;59.424;13.482;2024-03-17T15:47:55;2.60;99.90
46217;DHT22;47258;59.424;13.482;2024-03-17T15:50:22;2.50;99.90
46217;DHT22;47258;59.424;13.482;2024-03-17T15:52:47;2.50;99.90
46217;DHT22;47258;59.424;13.482;2024-03-17T15:55:14;2.40;99.90
46217;DHT22;47258;59.424;13.482;2024-03-17T15:57:39;2.40;99.90
46217;DHT22;47258;59.424;13.482;2024-03-17T16:00:06;2.40;99.90
46217;DHT22;47258;59.424;13.482;2024-03-17T16:02:35;2.40;99.90
46217;DHT22;47258;59.424;13.482;2024-03-17T16:05:01;2.30;99.90